createdAt,value
2023-01-29T00:04:19.653Z,14.90
2023-01-29T00:06:50.235Z,15.60
2023-01-29T00:09:20.738Z,16.90
2023-01-29T00:11:51.495Z,16.80
2023-01-29T00:14:22.534Z,17.20
2023-01-29T00:16:52.969Z,18.30
2023-01-29T00:19:23.271Z,18.80
2023-01-29T00:21:53.561Z,19.50
2023-01-29T00:24:24.665Z,18.30
2023-01-29T00:27:00.050Z,17.70
2023-01-29T00:29:30.440Z,18.40
2023-01-29T00:32:01.103Z,18.30
2023-01-29T00:37:08.572Z,18.20
2023-01-29T00:39:47.532Z,16.60
2023-01-29T00:42:36.019Z,14.20
2023-01-29T00:45:08.038Z,16.00
2023-01-29T00:47:39.167Z,15.70
2023-01-29T00:52:41.517Z,14.50
2023-01-29T00:55:12.360Z,13.80
2023-01-29T00:57:42.537Z,14.40
2023-01-29T01:00:16.981Z,13.60
2023-01-29T01:03:06.485Z,14.10
2023-01-29T01:05:38.808Z,14.20
2023-01-29T01:08:29.254Z,13.50
2023-01-29T01:11:05.615Z,15.70
2023-01-29T01:13:36.187Z,13.90
2023-01-29T01:16:13.092Z,14.40
2023-01-29T01:21:13.592Z,14.60
2023-01-29T01:23:46.849Z,13.80
2023-01-29T01:26:16.971Z,14.90
2023-01-29T01:28:47.409Z,14.30
2023-01-29T01:31:17.953Z,13.80
2023-01-29T01:33:48.139Z,14.60
2023-01-29T01:36:18.422Z,13.80
2023-01-29T01:38:49.363Z,15.00
2023-01-29T01:41:21.911Z,12.60
2023-01-29T01:43:54.493Z,11.90
2023-01-29T01:46:25.395Z,13.20
2023-01-29T01:48:59.552Z,12.50
2023-01-29T01:51:31.754Z,13.10
2023-01-29T01:54:04.723Z,13.70
2023-01-29T01:56:40.449Z,12.90
2023-01-29T01:59:13.844Z,13.70
2023-01-29T02:01:49.737Z,12.20
2023-01-29T02:04:41.166Z,14.20
2023-01-29T02:07:31.767Z,14.40
2023-01-29T02:10:07.251Z,11.80
2023-01-29T02:12:38.377Z,13.10
2023-01-29T02:15:11.198Z,13.50
2023-01-29T02:17:41.909Z,14.90
2023-01-29T02:20:19.729Z,14.20
2023-01-29T02:23:11.327Z,13.40
2023-01-29T02:25:53.458Z,12.10
2023-01-29T02:28:33.226Z,13.70
2023-01-29T02:31:09.116Z,11.50
2023-01-29T02:33:45.787Z,12.90
2023-01-29T02:36:23.747Z,12.00
2023-01-29T02:39:00.718Z,12.50
2023-01-29T02:41:36.997Z,12.30
2023-01-29T02:44:10.287Z,13.20
2023-01-29T02:46:44.868Z,13.10
2023-01-29T02:49:18.858Z,13.10
2023-01-29T02:51:55.984Z,14.40
2023-01-29T02:54:32.868Z,12.00
2023-01-29T02:57:08.254Z,12.30
2023-01-29T02:59:43.025Z,12.80
2023-01-29T03:02:16.818Z,14.70
2023-01-29T03:04:50.893Z,12.90
2023-01-29T03:07:38.982Z,14.20
2023-01-29T03:10:15.554Z,14.20
2023-01-29T03:12:48.060Z,14.50
2023-01-29T03:15:24.934Z,14.50
2023-01-29T03:20:31.776Z,12.90
2023-01-29T03:23:23.467Z,13.90
2023-01-29T03:26:13.343Z,14.10
2023-01-29T03:29:02.966Z,13.70
2023-01-29T03:31:52.070Z,13.80
2023-01-29T03:34:28.210Z,13.70
2023-01-29T03:37:00.594Z,12.70
2023-01-29T03:39:32.324Z,12.80
2023-01-29T03:42:09.979Z,12.90
2023-01-29T03:44:49.092Z,12.80
2023-01-29T03:47:23.479Z,13.60
2023-01-29T03:49:59.933Z,13.60
2023-01-29T03:52:41.586Z,13.70
2023-01-29T03:55:17.521Z,14.00
2023-01-29T03:57:54.177Z,14.70
2023-01-29T04:00:29.168Z,13.80
2023-01-29T04:03:03.902Z,15.00
2023-01-29T04:05:40.247Z,14.30
2023-01-29T04:08:15.055Z,13.80
2023-01-29T04:10:46.295Z,14.20
2023-01-29T04:13:18.342Z,14.10
2023-01-29T04:15:53.932Z,16.00
2023-01-29T04:18:24.681Z,15.60
2023-01-29T04:20:55.312Z,14.80
2023-01-29T04:23:27.088Z,14.00
2023-01-29T04:26:10.167Z,14.70
2023-01-29T04:28:51.001Z,14.80
2023-01-29T04:31:22.885Z,13.60
2023-01-29T04:34:01.583Z,14.10
2023-01-29T04:36:37.768Z,14.80
2023-01-29T04:39:13.995Z,15.00
2023-01-29T04:41:50.575Z,14.40
2023-01-29T04:44:27.372Z,17.00
2023-01-29T04:47:04.388Z,14.20
2023-01-29T04:49:38.015Z,13.70
2023-01-29T04:52:16.312Z,15.10
2023-01-29T04:54:54.913Z,13.80
2023-01-29T04:57:29.495Z,15.10
2023-01-29T05:00:04.495Z,15.70
2023-01-29T05:02:38.122Z,14.80
2023-01-29T05:05:09.843Z,14.80
2023-01-29T05:07:40.865Z,12.90
2023-01-29T05:10:14.921Z,14.40
2023-01-29T05:12:47.428Z,14.50
2023-01-29T05:15:21.193Z,14.80
2023-01-29T05:17:53.611Z,15.90
2023-01-29T05:20:23.948Z,14.10
2023-01-29T05:22:54.297Z,15.50
2023-01-29T05:25:29.206Z,14.90
2023-01-29T05:28:06.198Z,16.10
2023-01-29T05:30:38.973Z,15.60
2023-01-29T05:33:15.804Z,16.60
2023-01-29T05:38:16.165Z,14.90
2023-01-29T05:40:46.433Z,15.10
2023-01-29T05:43:19.661Z,15.30
2023-01-29T05:45:55.932Z,16.70
2023-01-29T05:48:27.641Z,14.80
2023-01-29T05:51:03.238Z,13.70
2023-01-29T05:53:34.853Z,15.60
2023-01-29T05:56:06.347Z,14.30
2023-01-29T05:58:37.145Z,14.80
2023-01-29T06:01:14.959Z,14.50
2023-01-29T06:03:45.681Z,12.90
2023-01-29T06:06:16.427Z,14.40
2023-01-29T06:08:46.721Z,14.70
2023-01-29T06:11:18.105Z,15.70
2023-01-29T06:13:48.803Z,15.20
2023-01-29T06:18:48.111Z,15.10
2023-01-29T06:21:20.051Z,15.80
2023-01-29T06:23:54.046Z,15.80
2023-01-29T06:26:25.113Z,16.70
2023-01-29T06:28:55.491Z,15.90
2023-01-29T06:31:37.945Z,17.00
2023-01-29T06:34:09.824Z,16.40
2023-01-29T06:36:41.500Z,15.20
2023-01-29T06:39:12.475Z,16.50
2023-01-29T06:41:42.733Z,14.60
2023-01-29T06:44:12.996Z,15.30
2023-01-29T06:46:43.417Z,15.90
2023-01-29T06:49:14.051Z,16.40
2023-01-29T06:51:45.070Z,15.00
2023-01-29T06:54:15.675Z,15.10
2023-01-29T06:56:46.408Z,14.70
2023-01-29T06:59:16.894Z,16.50
2023-01-29T07:01:47.677Z,15.80
2023-01-29T07:04:18.140Z,15.30
2023-01-29T07:06:48.828Z,13.30
2023-01-29T07:09:20.227Z,13.50
2023-01-29T07:11:51.026Z,14.90
2023-01-29T07:16:51.011Z,13.90
2023-01-29T07:21:50.776Z,13.80
2023-01-29T07:24:25.232Z,16.70
2023-01-29T07:26:55.673Z,15.90
2023-01-29T07:29:26.682Z,15.00
2023-01-29T07:31:57.183Z,15.10
2023-01-29T07:34:27.406Z,16.80
2023-01-29T07:36:57.692Z,15.30
2023-01-29T07:39:27.898Z,17.50
2023-01-29T07:41:58.909Z,16.20
2023-01-29T07:44:29.208Z,16.90
2023-01-29T07:46:59.534Z,15.70
2023-01-29T07:49:29.781Z,16.70
2023-01-29T07:52:00.492Z,17.90
2023-01-29T07:54:33.116Z,17.60
2023-01-29T07:57:03.300Z,17.40
2023-01-29T07:59:33.757Z,18.00
2023-01-29T08:04:33.152Z,17.10
2023-01-29T08:09:35.159Z,18.80
2023-01-29T08:12:05.866Z,16.60
2023-01-29T08:14:36.416Z,15.80
2023-01-29T08:17:06.599Z,19.30
2023-01-29T08:19:36.812Z,17.80
2023-01-29T08:22:07.589Z,18.70
2023-01-29T08:24:53.260Z,16.30
2023-01-29T08:27:24.537Z,18.40
2023-01-29T08:29:54.837Z,18.30
2023-01-29T08:32:25.054Z,17.40
2023-01-29T08:34:55.774Z,16.90
2023-01-29T08:37:26.194Z,15.10
2023-01-29T08:39:56.461Z,17.80
2023-01-29T08:42:26.607Z,18.00
2023-01-29T08:44:56.773Z,19.60
2023-01-29T08:47:28.610Z,17.00
2023-01-29T08:49:59.021Z,16.30
2023-01-29T08:52:29.322Z,13.80
2023-01-29T08:54:59.529Z,14.10
2023-01-29T08:57:29.631Z,11.60
2023-01-29T08:59:59.760Z,12.50
2023-01-29T09:02:30.378Z,11.90
2023-01-29T09:05:00.803Z,12.90
2023-01-29T09:10:01.056Z,17.20
2023-01-29T09:15:01.193Z,17.70
2023-01-29T09:17:31.329Z,18.10
2023-01-29T09:20:01.507Z,18.20
2023-01-29T09:22:34.441Z,17.90
2023-01-29T09:25:05.511Z,17.10
2023-01-29T09:27:35.976Z,19.80
2023-01-29T09:30:08.475Z,18.50
2023-01-29T09:32:54.910Z,18.80
2023-01-29T09:35:25.444Z,20.50
2023-01-29T09:37:58.810Z,21.30
2023-01-29T09:40:33.350Z,18.90
2023-01-29T09:43:05.475Z,19.60
2023-01-29T09:45:36.614Z,17.50
2023-01-29T09:48:11.103Z,19.10
2023-01-29T09:50:43.687Z,19.10
2023-01-29T09:53:18.946Z,17.10
2023-01-29T09:55:52.123Z,14.20
2023-01-29T09:58:29.695Z,20.30
2023-01-29T10:01:06.849Z,16.60
2023-01-29T10:06:08.860Z,18.30
2023-01-29T10:09:08.403Z,18.70
2023-01-29T10:11:47.131Z,16.70
2023-01-29T10:14:22.925Z,18.00
2023-01-29T10:17:04.403Z,14.60
2023-01-29T10:19:50.248Z,16.50
2023-01-29T10:22:54.364Z,16.10
2023-01-29T10:25:25.211Z,13.80
2023-01-29T10:27:57.746Z,14.50
2023-01-29T10:30:33.669Z,13.80
2023-01-29T10:33:05.868Z,17.20
2023-01-29T10:35:37.948Z,14.70
2023-01-29T10:38:19.633Z,13.90
2023-01-29T10:40:55.761Z,16.40
2023-01-29T10:43:32.857Z,16.30
2023-01-29T10:46:10.218Z,16.80
2023-01-29T10:48:47.742Z,16.00
2023-01-29T10:51:26.455Z,15.20
2023-01-29T10:54:05.941Z,15.00
2023-01-29T10:56:47.965Z,14.20
2023-01-29T10:59:31.395Z,14.20
2023-01-29T11:02:09.454Z,13.90
2023-01-29T11:04:42.801Z,13.20
2023-01-29T11:07:13.796Z,13.30
2023-01-29T11:09:47.052Z,11.70
2023-01-29T11:12:20.193Z,13.60
2023-01-29T11:14:56.590Z,12.90
2023-01-29T11:17:27.551Z,13.30
2023-01-29T11:19:58.300Z,12.40
2023-01-29T11:22:30.427Z,11.50
2023-01-29T11:25:16.273Z,12.00
2023-01-29T11:27:48.611Z,10.90
2023-01-29T11:30:22.434Z,11.30
2023-01-29T11:32:56.733Z,11.10
2023-01-29T11:35:30.123Z,11.40
2023-01-29T11:38:09.909Z,11.10
2023-01-29T11:40:54.671Z,12.20
2023-01-29T11:43:31.450Z,12.40
2023-01-29T11:46:05.600Z,13.60
2023-01-29T11:48:42.686Z,12.30
2023-01-29T11:51:22.912Z,10.90
2023-01-29T11:53:55.004Z,12.40
2023-01-29T11:56:30.003Z,10.90
2023-01-29T11:59:04.143Z,12.60
2023-01-29T12:01:37.857Z,12.10
2023-01-29T12:04:16.741Z,16.60
2023-01-29T12:06:50.260Z,14.80
2023-01-29T12:09:24.832Z,13.00
2023-01-29T12:11:55.611Z,16.20
2023-01-29T12:14:33.360Z,14.80
2023-01-29T12:17:06.706Z,14.60
2023-01-29T12:19:42.765Z,13.80
2023-01-29T12:22:18.220Z,15.10
2023-01-29T12:24:53.217Z,12.50
2023-01-29T12:27:30.626Z,12.30
2023-01-29T12:30:05.054Z,14.50
2023-01-29T12:32:42.410Z,13.00
2023-01-29T12:35:18.820Z,13.90
2023-01-29T12:37:54.966Z,14.50
2023-01-29T12:40:28.095Z,14.10
2023-01-29T12:43:03.370Z,16.10
2023-01-29T12:45:35.406Z,14.10
2023-01-29T12:48:08.730Z,15.00
2023-01-29T12:50:39.639Z,15.10
2023-01-29T12:55:47.597Z,15.90
2023-01-29T12:58:22.073Z,16.40
2023-01-29T13:00:53.801Z,13.20
2023-01-29T13:03:28.294Z,16.40
2023-01-29T13:06:00.519Z,14.70
2023-01-29T13:08:33.736Z,16.50
2023-01-29T13:11:08.087Z,16.40
2023-01-29T13:13:42.300Z,15.10
2023-01-29T13:16:22.273Z,15.90
2023-01-29T13:18:55.666Z,15.40
2023-01-29T13:21:27.922Z,17.20
2023-01-29T13:24:00.693Z,18.20
2023-01-29T13:26:34.344Z,18.80
2023-01-29T13:29:07.673Z,21.00
2023-01-29T13:31:46.052Z,20.70
2023-01-29T13:34:17.924Z,20.90
2023-01-29T13:36:49.895Z,22.00
2023-01-29T13:39:25.000Z,21.30
2023-01-29T13:41:56.556Z,18.00
2023-01-29T13:44:29.108Z,21.70
2023-01-29T13:47:01.807Z,22.00
2023-01-29T13:49:35.695Z,20.90
2023-01-29T13:52:25.178Z,23.90
2023-01-29T13:55:03.984Z,21.70
2023-01-29T13:58:04.926Z,20.10
2023-01-29T14:01:00.984Z,19.80
2023-01-29T14:04:10.132Z,22.30
2023-01-29T14:06:57.492Z,24.20
2023-01-29T14:10:02.589Z,22.20
2023-01-29T14:12:53.452Z,22.10
2023-01-29T14:15:25.930Z,22.00
2023-01-29T14:18:18.474Z,24.80
2023-01-29T14:20:59.973Z,22.90
2023-01-29T14:23:42.366Z,23.60
2023-01-29T14:26:28.863Z,24.00
2023-01-29T14:29:05.853Z,25.10
2023-01-29T14:31:43.141Z,24.20
2023-01-29T14:34:24.677Z,24.80
2023-01-29T14:36:57.604Z,24.60
2023-01-29T14:39:42.267Z,26.00
2023-01-29T14:42:21.827Z,24.50
2023-01-29T14:45:07.906Z,24.60
2023-01-29T14:47:59.447Z,26.50
2023-01-29T14:50:52.460Z,26.20
2023-01-29T14:53:28.348Z,26.00
2023-01-29T14:56:02.621Z,30.80
2023-01-29T14:58:39.844Z,26.90
2023-01-29T15:01:20.522Z,26.70
2023-01-29T15:03:52.832Z,26.30
2023-01-29T15:06:29.722Z,28.80
2023-01-29T15:09:07.917Z,27.40
2023-01-29T15:11:45.113Z,29.30
2023-01-29T15:14:24.556Z,26.60
2023-01-29T15:17:01.441Z,28.00
2023-01-29T15:19:35.498Z,26.70
2023-01-29T15:22:08.438Z,27.40
2023-01-29T15:24:40.900Z,26.80
2023-01-29T15:27:16.224Z,28.10
2023-01-29T15:29:52.149Z,28.00
2023-01-29T15:32:29.839Z,29.50
2023-01-29T15:35:02.471Z,27.30
2023-01-29T15:37:34.634Z,26.70
2023-01-29T15:40:07.920Z,26.10
2023-01-29T15:42:48.127Z,33.20
2023-01-29T15:45:29.737Z,28.80
2023-01-29T15:48:04.048Z,26.60
2023-01-29T15:50:36.602Z,32.00
2023-01-29T15:53:10.306Z,27.10
2023-01-29T15:55:44.722Z,28.20
2023-01-29T15:58:22.030Z,27.80
2023-01-29T16:00:53.684Z,27.70
2023-01-29T16:03:25.338Z,26.70
2023-01-29T16:05:56.477Z,24.20
2023-01-29T16:08:28.466Z,27.70
2023-01-29T16:11:04.018Z,27.10
2023-01-29T16:13:36.189Z,24.90
2023-01-29T16:16:19.782Z,25.50
2023-01-29T16:18:59.832Z,25.20
2023-01-29T16:21:34.968Z,29.40
2023-01-29T16:24:09.475Z,26.50
2023-01-29T16:26:43.096Z,24.50
2023-01-29T16:29:14.889Z,26.70
2023-01-29T16:31:47.513Z,27.70
2023-01-29T16:34:23.753Z,25.30
2023-01-29T16:36:55.313Z,27.30
2023-01-29T16:39:27.446Z,28.20
2023-01-29T16:42:22.684Z,29.40
2023-01-29T16:44:58.258Z,28.20
2023-01-29T16:47:32.029Z,26.60
2023-01-29T16:50:22.036Z,24.80
2023-01-29T16:52:59.216Z,25.30
2023-01-29T16:55:36.181Z,22.40
2023-01-29T16:58:13.962Z,25.60
2023-01-29T17:00:47.253Z,26.90
2023-01-29T17:03:19.097Z,27.20
2023-01-29T17:05:51.346Z,28.40
2023-01-29T17:08:27.675Z,28.10
2023-01-29T17:10:57.906Z,28.10
2023-01-29T17:13:31.435Z,26.30
2023-01-29T17:16:03.752Z,26.40
2023-01-29T17:18:37.097Z,25.90
2023-01-29T17:21:08.321Z,23.10
2023-01-29T17:23:40.211Z,22.50
2023-01-29T17:26:13.525Z,24.00
2023-01-29T17:28:44.208Z,23.30
2023-01-29T17:31:15.424Z,20.50
2023-01-29T17:33:48.158Z,16.80
2023-01-29T17:36:19.488Z,13.60
2023-01-29T17:38:52.861Z,15.80
2023-01-29T17:41:27.587Z,15.30
2023-01-29T17:43:59.743Z,14.00
2023-01-29T17:46:31.517Z,12.60
2023-01-29T17:49:02.569Z,13.20
2023-01-29T17:51:33.176Z,12.30
2023-01-29T17:54:03.606Z,12.10
2023-01-29T17:56:34.033Z,10.20
2023-01-29T17:59:06.038Z,10.60
2023-01-29T18:01:39.942Z,11.60
2023-01-29T18:04:11.139Z,11.40
2023-01-29T18:06:46.225Z,11.70
2023-01-29T18:09:18.440Z,12.00
2023-01-29T18:11:54.042Z,11.70
2023-01-29T18:14:25.708Z,11.50
2023-01-29T18:16:57.406Z,12.80
2023-01-29T18:19:30.729Z,10.90
2023-01-29T18:22:05.925Z,12.30
2023-01-29T18:24:38.601Z,12.00
2023-01-29T18:27:14.510Z,11.10
2023-01-29T18:29:46.046Z,9.50
2023-01-29T18:32:17.749Z,9.20
2023-01-29T18:34:54.356Z,10.20
2023-01-29T18:37:26.149Z,9.30
2023-01-29T18:39:58.967Z,10.30
2023-01-29T18:42:35.785Z,8.50
2023-01-29T18:45:09.709Z,9.20
2023-01-29T18:47:42.863Z,9.10
2023-01-29T18:50:14.141Z,8.30
2023-01-29T18:55:14.308Z,7.90
2023-01-29T18:58:27.996Z,8.90
2023-01-29T19:00:38.546Z,9.90
2023-01-29T19:03:10.272Z,9.20
2023-01-29T19:05:43.106Z,9.40
2023-01-29T19:08:13.745Z,9.90
2023-01-29T19:10:46.978Z,10.00
2023-01-29T19:13:22.924Z,11.90
2023-01-29T19:15:56.681Z,11.00
2023-01-29T19:18:32.399Z,13.30
2023-01-29T19:21:10.415Z,12.60
2023-01-29T19:23:42.221Z,12.50
2023-01-29T19:26:36.508Z,11.30
2023-01-29T19:29:09.453Z,13.50
2023-01-29T19:31:39.934Z,12.70
2023-01-29T19:34:11.485Z,14.10
2023-01-29T19:36:42.934Z,13.00
2023-01-29T19:39:23.482Z,12.50
2023-01-29T19:42:10.317Z,12.80
2023-01-29T19:45:00.377Z,12.90
2023-01-29T19:47:49.548Z,13.60
2023-01-29T19:50:22.001Z,13.30
2023-01-29T19:52:53.102Z,12.60
2023-01-29T19:55:24.212Z,13.40
2023-01-29T19:57:56.814Z,16.00
2023-01-29T20:00:33.405Z,15.10
2023-01-29T20:03:05.009Z,14.40
2023-01-29T20:05:43.953Z,15.10
2023-01-29T20:08:18.044Z,14.40
2023-01-29T20:10:49.484Z,14.30
2023-01-29T20:13:19.696Z,15.90
2023-01-29T20:15:53.062Z,16.50
2023-01-29T20:18:23.489Z,15.30
2023-01-29T20:20:54.042Z,14.70
2023-01-29T20:26:09.400Z,14.00
2023-01-29T20:28:40.065Z,13.80
2023-01-29T20:31:12.894Z,13.70
2023-01-29T20:33:54.753Z,14.80
2023-01-29T20:36:27.455Z,10.90
2023-01-29T20:38:57.825Z,14.20
2023-01-29T20:41:35.139Z,15.10
2023-01-29T20:44:09.325Z,14.80
2023-01-29T20:46:40.650Z,15.60
2023-01-29T20:49:12.191Z,15.70
2023-01-29T20:51:43.103Z,14.80
2023-01-29T20:54:14.277Z,16.40
2023-01-29T20:56:52.719Z,15.60
2023-01-29T20:59:28.697Z,14.50
2023-01-29T21:02:00.493Z,14.90
2023-01-29T21:04:31.156Z,13.30
2023-01-29T21:09:33.001Z,13.70
2023-01-29T21:12:05.147Z,15.00
2023-01-29T21:14:36.037Z,14.60
2023-01-29T21:19:39.075Z,13.30
2023-01-29T21:22:10.374Z,15.50
2023-01-29T21:24:42.329Z,13.50
2023-01-29T21:27:19.560Z,14.20
2023-01-29T21:29:49.852Z,13.20
2023-01-29T21:32:20.231Z,15.00
2023-01-29T21:34:52.554Z,14.50
2023-01-29T21:37:22.933Z,16.40
2023-01-29T21:39:53.987Z,16.30
2023-01-29T21:42:42.028Z,17.20
2023-01-29T21:45:12.905Z,15.20
2023-01-29T21:47:43.271Z,14.10
2023-01-29T21:50:13.733Z,14.00
2023-01-29T21:52:44.119Z,14.90
2023-01-29T21:55:18.002Z,15.60
2023-01-29T21:57:49.383Z,15.30
2023-01-29T22:00:23.670Z,15.00
2023-01-29T22:02:54.160Z,14.70
2023-01-29T22:05:24.676Z,14.80
2023-01-29T22:07:54.905Z,14.50
2023-01-29T22:10:25.066Z,15.00
2023-01-29T22:12:55.290Z,13.60
2023-01-29T22:15:26.411Z,12.40
2023-01-29T22:17:56.969Z,10.40
2023-01-29T22:20:30.499Z,8.70
2023-01-29T22:23:01.503Z,9.30
2023-01-29T22:28:02.462Z,7.30
2023-01-29T22:30:33.133Z,6.80
2023-01-29T22:33:03.515Z,7.30
2023-01-29T22:35:34.151Z,6.80
2023-01-29T22:38:04.757Z,7.30
2023-01-29T22:40:35.377Z,6.00
2023-01-29T22:43:05.917Z,7.20
2023-01-29T22:45:36.468Z,7.50
2023-01-29T22:50:38.667Z,7.50
2023-01-29T22:53:09.542Z,7.10
2023-01-29T22:55:40.810Z,9.00
2023-01-29T22:58:11.081Z,10.30
2023-01-29T23:00:41.254Z,11.30
2023-01-29T23:03:11.828Z,8.70
2023-01-29T23:05:42.461Z,8.30
2023-01-29T23:08:12.838Z,7.70
2023-01-29T23:10:43.123Z,9.10
2023-01-29T23:13:13.360Z,7.70
2023-01-29T23:15:43.689Z,6.70
2023-01-29T23:18:14.148Z,8.30
2023-01-29T23:20:44.762Z,10.60
2023-01-29T23:23:15.314Z,12.20
2023-01-29T23:26:03.159Z,12.50
2023-01-29T23:28:33.440Z,7.20
2023-01-29T23:31:03.854Z,12.00
2023-01-29T23:33:34.065Z,11.60
2023-01-29T23:36:04.638Z,11.30
2023-01-29T23:38:34.803Z,11.00
2023-01-29T23:41:05.573Z,12.30
2023-01-29T23:43:36.440Z,12.70
2023-01-29T23:46:07.209Z,14.00
2023-01-29T23:48:37.499Z,18.50
2023-01-29T23:51:08.315Z,17.40
2023-01-29T23:53:38.524Z,15.90
2023-01-29T23:56:10.649Z,20.20
2023-01-29T23:58:41.169Z,20.40
